KB1DML-3 Rockport MA US current weather conditions

sailwx.info

Wind from 180 at 9 knots gusting 11

Air temperature 20.0° C
Dewpoint 18.8° C

Last reported at 2020-Aug-05 18:05 UTC.
Time now 2020-Aug-05 18:34 UTC

Location: N 42°38' W 070°35'.
View on Google Maps.

See reports from other nearby stations

  
Tides and Currents Weather Stations Pressure Air Temp Water Temp Dewpoint Dewpoint Depression Visibility Wind Speed Wind Dir Waves Ship Positions
date/time (UTC)wind fromknots sea level pressurealtimeterstation pressurevisibilityair tempwater tempwave heightnotes
2020-Aug-05 18:05 180 9 gusting 11 20.0
2020-Aug-05 18:00 180 10 gusting 12 19.4
2020-Aug-05 17:55 180 10 gusting 11 19.4
2020-Aug-05 17:50 180 11 gusting 13 19.4
2020-Aug-05 17:45 180 12 gusting 13 19.4
2020-Aug-05 17:40 180 11 gusting 13 19.4
2020-Aug-05 17:35 180 11 gusting 12 19.4
2020-Aug-05 17:30 180 10 gusting 12 19.4
2020-Aug-05 17:25 180 9 gusting 12 19.4
2020-Aug-05 17:20 180 11 gusting 13 19.4
2020-Aug-05 17:15 180 11 gusting 13 19.4
2020-Aug-05 17:10 180 12 gusting 13 19.4
2020-Aug-05 17:05 180 13 gusting 15 19.4
2020-Aug-05 17:00 180 10 gusting 12 18.9
2020-Aug-05 16:55 180 12 gusting 13 19.4
2020-Aug-05 16:50 180 12 gusting 13 18.9
2020-Aug-05 16:45 180 8 gusting 11 18.9
2020-Aug-05 16:40 180 7 gusting 9 18.9
2020-Aug-05 16:35 180 7 gusting 9 18.9
2020-Aug-05 16:30 180 8 gusting 10 18.9
2020-Aug-05 16:25 180 10 gusting 12 18.9
2020-Aug-05 16:20 180 7 gusting 9 19.4
2020-Aug-05 16:15 202 8 gusting 10 19.4
2020-Aug-05 16:10 202 8 gusting 9 18.9
2020-Aug-05 16:05 202 10 gusting 12 18.9
2020-Aug-05 16:00 202 10 gusting 13 18.9
2020-Aug-05 15:55 202 10 gusting 11 18.9
2020-Aug-05 15:50 202 10 gusting 13 18.9
2020-Aug-05 15:45 202 9 gusting 11 18.9
2020-Aug-05 15:40 202 7 gusting 9 18.9
2020-Aug-05 15:35 202 8 gusting 10 18.9
2020-Aug-05 15:30 202 7 gusting 9 18.3
2020-Aug-05 15:25 202 8 gusting 9 18.9
2020-Aug-05 15:20 202 8 gusting 10 18.9
2020-Aug-05 15:15 202 8 gusting 10 18.9
2020-Aug-05 15:10 202 8 gusting 11 19.4
2020-Aug-05 15:05 202 6 gusting 9 19.4
2020-Aug-05 15:00 202 6 gusting 11 20.0
2020-Aug-05 14:55 202 6 gusting 11 20.0
2020-Aug-05 14:50 202 7 gusting 10 20.0
2020-Aug-05 14:45 202 6 gusting 11 20.6
2020-Aug-05 14:40 225 5 gusting 7 20.6
2020-Aug-05 14:35 225 5 gusting 7 20.6
2020-Aug-05 14:30 247 5 gusting 8 20.6
2020-Aug-05 14:25 225 6 gusting 8 20.6
2020-Aug-05 14:20 225 6 gusting 8 20.6
2020-Aug-05 14:15 247 5 gusting 8 20.6
2020-Aug-05 14:10 225 5 gusting 8 20.0
2020-Aug-05 14:05 225 6 gusting 8 20.0
2020-Aug-05 14:00 225 6 gusting 8 20.0
2020-Aug-05 13:55 225 6 gusting 10 19.4
2020-Aug-05 13:50 225 6 gusting 9 19.4
2020-Aug-05 13:45 225 6 gusting 10 18.9
2020-Aug-05 13:40 225 7 gusting 10 18.9
2020-Aug-05 13:35 225 6 gusting 10 18.9
2020-Aug-05 13:30 225 7 gusting 11 18.9
2020-Aug-05 13:25 225 6 gusting 11 18.9
2020-Aug-05 13:20 225 6 gusting 10 18.9
2020-Aug-05 13:15 225 6 gusting 11 18.9
2020-Aug-05 13:10 247 7 gusting 10 19.4
2020-Aug-05 13:05 247 9 gusting 11 19.4
2020-Aug-05 13:00 247 7 gusting 12 19.4
2020-Aug-05 12:55 247 8 gusting 11 19.4
2020-Aug-05 12:50 247 6 gusting 10 18.9
2020-Aug-05 12:45 247 7 gusting 11 18.9
2020-Aug-05 12:40 247 6 gusting 10 18.9
2020-Aug-05 12:35 225 6 gusting 10 18.9
2020-Aug-05 12:25 247 6 gusting 9 18.3
2020-Aug-05 12:20 225 6 gusting 8 18.3
2020-Aug-05 12:15 225 6 gusting 9 18.3
2020-Aug-05 12:10 225 6 gusting 9 18.3
2020-Aug-05 12:05 225 6 gusting 9 18.3
2020-Aug-05 12:00 225 6 gusting 9 18.3
2020-Aug-05 11:55 225 6 gusting 10 18.3
2020-Aug-05 11:50 247 7 gusting 10 18.9
2020-Aug-05 11:45 247 7 gusting 10 18.9
2020-Aug-05 11:40 247 7 gusting 10 18.9
2020-Aug-05 11:35 247 6 gusting 9 18.9
2020-Aug-05 11:30 247 6 gusting 9 18.3
2020-Aug-05 11:25 247 6 gusting 8 18.3
2020-Aug-05 11:20 247 6 gusting 8 18.3
2020-Aug-05 11:15 247 6 gusting 8 18.3
2020-Aug-05 11:10 225 5 gusting 7 18.3
2020-Aug-05 11:05 225 5 gusting 7 18.3
2020-Aug-05 11:00 225 4 gusting 6 17.8
2020-Aug-05 10:55 247 5 gusting 7 18.3
2020-Aug-05 10:50 247 5 gusting 6 18.3
2020-Aug-05 10:45 247 5 gusting 7 18.3
2020-Aug-05 10:40 225 5 gusting 7 18.3
2020-Aug-05 10:35 225 4 gusting 7 18.3
2020-Aug-05 10:30 225 4 gusting 6 18.9
2020-Aug-05 10:25 225 5 gusting 7 18.9
2020-Aug-05 10:20 202 5 gusting 7 18.3
2020-Aug-05 10:15 225 5 gusting 8 18.3
2020-Aug-05 10:10 225 4 gusting 6 18.3
2020-Aug-05 10:05 225 4 gusting 6 18.3
2020-Aug-05 10:00 225 4 gusting 6 18.3
2020-Aug-05 09:55 225 4 gusting 5 18.3
2020-Aug-05 09:50 225 4 gusting 6 18.3
2020-Aug-05 09:45 225 5 gusting 7 18.3
2020-Aug-05 09:40 225 6 gusting 7 18.3
2020-Aug-05 09:35 225 6 gusting 7 17.8
2020-Aug-05 09:30 225 6 gusting 8 17.8
2020-Aug-05 09:25 225 6 gusting 8 17.8
2020-Aug-05 09:20 225 6 gusting 8 17.8
2020-Aug-05 09:15 225 7 gusting 9 18.3
2020-Aug-05 09:10 225 6 gusting 11 18.3
2020-Aug-05 09:05 225 6 gusting 8 18.9
2020-Aug-05 09:00 247 6 gusting 10 18.9
2020-Aug-05 08:55 247 8 gusting 10 18.9
2020-Aug-05 08:50 247 8 gusting 10 19.4
2020-Aug-05 08:45 247 8 gusting 11 19.4
2020-Aug-05 08:40 247 9 gusting 12 19.4
2020-Aug-05 08:35 247 9 gusting 13 19.4
2020-Aug-05 08:30 247 9 gusting 13 19.4
2020-Aug-05 08:25 247 10 gusting 13 19.4
2020-Aug-05 08:20 247 9 gusting 12 19.4
2020-Aug-05 08:15 247 8 gusting 12 19.4
2020-Aug-05 08:10 247 9 gusting 12 19.4
2020-Aug-05 08:05 247 10 gusting 13 19.4
2020-Aug-05 08:00 247 9 gusting 13 19.4
2020-Aug-05 07:55 247 10 gusting 14 19.4
2020-Aug-05 07:50 247 11 gusting 15 19.4
2020-Aug-05 07:45 247 11 gusting 15 19.4
2020-Aug-05 07:40 247 11 gusting 13 19.4
2020-Aug-05 07:35 247 12 gusting 14 19.4
2020-Aug-05 07:30 247 11 gusting 13 19.4
2020-Aug-05 07:25 247 10 gusting 14 19.4
2020-Aug-05 07:20 247 9 gusting 12 19.4
2020-Aug-05 07:15 247 7 gusting 12 19.4
2020-Aug-05 07:10 247 7 gusting 10 18.9
2020-Aug-05 07:05 270 9 gusting 12 18.9
2020-Aug-05 07:00 270 9 gusting 13 18.9
2020-Aug-05 06:55 247 9 gusting 13 18.9
2020-Aug-05 06:50 247 10 gusting 14 18.9
2020-Aug-05 06:45 247 11 gusting 14 18.9
2020-Aug-05 06:40 247 11 gusting 14 18.9
2020-Aug-05 06:35 247 12 gusting 15 18.9
2020-Aug-05 06:30 247 11 gusting 14 19.4
2020-Aug-05 06:25 247 11 gusting 17 19.4
2020-Aug-05 06:20 247 12 gusting 16 19.4
2020-Aug-05 06:15 247 12 gusting 16 19.4
2020-Aug-05 06:10 247 13 gusting 17 19.4
2020-Aug-05 06:05 247 12 gusting 14 19.4
2020-Aug-05 06:00 247 13 gusting 16 19.4
2020-Aug-05 05:55 247 13 gusting 18 19.4
2020-Aug-05 05:50 247 13 gusting 17 19.4
2020-Aug-05 05:45 247 13 gusting 17 19.4
2020-Aug-05 05:40 247 14 gusting 18 19.4
2020-Aug-05 05:35 247 13 gusting 18 19.4
2020-Aug-05 05:30 247 13 gusting 18 19.4
2020-Aug-05 05:25 247 13 gusting 19 19.4
2020-Aug-05 05:20 247 13 gusting 19 19.4
2020-Aug-05 05:15 247 14 gusting 19 19.4
2020-Aug-05 05:10 247 13 gusting 19 19.4
2020-Aug-05 05:05 247 13 gusting 16 19.4
2020-Aug-05 05:00 247 13 gusting 17 19.4
2020-Aug-05 04:55 247 13 gusting 16 19.4
2020-Aug-05 04:50 247 13 gusting 18 19.4
2020-Aug-05 04:45 247 14 gusting 18 19.4
2020-Aug-05 04:40 247 14 gusting 19 20.0
2020-Aug-05 04:35 247 14 gusting 20 20.0
2020-Aug-05 04:30 247 16 gusting 20 20.0
2020-Aug-05 04:25 247 15 gusting 20 20.0
2020-Aug-05 04:20 247 15 gusting 20 20.0
2020-Aug-05 04:15 247 15 gusting 20 20.0
2020-Aug-05 04:10 225 14 gusting 19 20.0
2020-Aug-05 04:05 225 14 gusting 21 20.0
2020-Aug-05 04:00 225 14 gusting 19 20.0
2020-Aug-05 03:55 247 15 gusting 20 20.0
2020-Aug-05 03:50 225 15 gusting 20 20.6
2020-Aug-05 03:45 225 16 gusting 24 20.6
2020-Aug-05 03:40 225 17 gusting 23 20.6
2020-Aug-05 03:35 225 17 gusting 22 20.6
2020-Aug-05 03:25 225 19 gusting 23 20.6
2020-Aug-05 03:20 225 19 gusting 26 21.1
2020-Aug-05 03:15 225 19 gusting 27 21.1
2020-Aug-05 03:10 225 19 gusting 26 21.1
2020-Aug-05 03:05 225 19 gusting 28 21.1
2020-Aug-05 03:00 225 21 gusting 26 21.1
2020-Aug-05 02:55 225 21 gusting 29 21.1
2020-Aug-05 02:50 225 20 gusting 26 21.1
2020-Aug-05 02:45 225 21 gusting 27 21.1
2020-Aug-05 02:40 225 20 gusting 25 21.1
2020-Aug-05 02:30 225 23 gusting 28 21.7
2020-Aug-05 02:25 202 23 gusting 32 21.7
2020-Aug-05 02:20 202 25 gusting 31 21.7
2020-Aug-05 02:15 202 25 gusting 30 21.7
2020-Aug-05 02:10 202 25 gusting 30 21.7
2020-Aug-05 02:05 202 25 gusting 29 21.7
2020-Aug-05 02:00 202 26 gusting 32 21.7
2020-Aug-05 01:55 202 26 gusting 35 21.7
2020-Aug-05 01:50 202 26 gusting 33 21.7
2020-Aug-05 01:45 202 28 gusting 34 22.2
2020-Aug-05 01:40 202 26 gusting 32 21.7
2020-Aug-05 01:35 202 28 gusting 35 21.7
2020-Aug-05 01:30 202 29 gusting 34 21.7
2020-Aug-05 01:25 202 29 gusting 39 21.7
2020-Aug-05 01:20 202 30 gusting 36 22.2
2020-Aug-05 01:15 202 31 gusting 39 22.2
2020-Aug-05 01:10 202 33 gusting 41 22.2
2020-Aug-05 01:05 202 32 gusting 39 22.2
2020-Aug-05 01:00 202 33 gusting 39 22.2
2020-Aug-05 00:55 202 33 gusting 38 22.2
2020-Aug-05 00:50 202 33 gusting 39 22.2
2020-Aug-05 00:45 202 33 gusting 42 22.8
2020-Aug-05 00:40 202 31 gusting 38 22.2
2020-Aug-05 00:35 202 29 gusting 36 21.7
2020-Aug-05 00:25 202 28 gusting 33 21.7
2020-Aug-05 00:20 180 28 gusting 37 21.7
2020-Aug-05 00:15 180 28 gusting 34 21.7
2020-Aug-05 00:10 180 28 gusting 34 21.7
2020-Aug-05 00:05 180 29 gusting 34 21.7
2020-Aug-05 00:00 180 30 gusting 36 21.7
2020-Aug-04 23:55 180 30 gusting 36 21.7
2020-Aug-04 23:50 180 30 gusting 34 21.7
2020-Aug-04 23:45 180 31 gusting 36 21.7
2020-Aug-04 23:40 180 32 gusting 37 22.2
2020-Aug-04 23:35 180 33 gusting 39 22.2
2020-Aug-04 23:30 180 33 gusting 40 22.2
2020-Aug-04 23:25 180 33 gusting 39 22.2
2020-Aug-04 23:20 180 31 gusting 38 22.2
2020-Aug-04 23:15 180 32 gusting 39 22.2
2020-Aug-04 23:10 180 33 gusting 42 22.2
2020-Aug-04 23:05 180 32 gusting 44 22.8
2020-Aug-04 23:00 180 32 gusting 41 22.8
2020-Aug-04 22:55 180 33 gusting 42 22.8
2020-Aug-04 22:50 180 31 gusting 41 22.8
2020-Aug-04 22:45 180 29 gusting 38 22.8
2020-Aug-04 22:40 180 28 gusting 38 22.8
2020-Aug-04 22:35 180 32 gusting 39 22.8
2020-Aug-04 22:30 180 32 gusting 51 22.8
2020-Aug-04 22:25 180 33 gusting 45 23.3
2020-Aug-04 22:20 180 33 gusting 46 23.9
2020-Aug-04 22:15 180 33 gusting 46 23.9
2020-Aug-04 22:10 180 33 gusting 49 23.9
2020-Aug-04 22:05 180 33 gusting 45 23.3
2020-Aug-04 22:00 157 36 gusting 47 23.3
2020-Aug-04 21:55 157 33 gusting 40 22.8
2020-Aug-04 21:50 157 32 gusting 39 22.8
2020-Aug-04 21:45 157 28 gusting 35 22.8
2020-Aug-04 21:40 157 27 gusting 35 22.8
2020-Aug-04 21:35 157 28 gusting 37 22.8
2020-Aug-04 21:30 157 26 gusting 34 22.8
2020-Aug-04 21:25 157 27 gusting 36 22.8
2020-Aug-04 21:20 157 27 gusting 35 22.8
2020-Aug-04 21:15 157 26 gusting 35 22.8
2020-Aug-04 21:10 157 27 gusting 35 22.8
2020-Aug-04 21:05 157 28 gusting 35 22.8
2020-Aug-04 21:00 157 29 gusting 35 22.8
2020-Aug-04 20:55 157 26 gusting 34 22.8
2020-Aug-04 20:50 157 26 gusting 33 22.8
2020-Aug-04 20:45 157 24 gusting 32 22.2
2020-Aug-04 20:40 157 20 gusting 26 22.2
2020-Aug-04 20:35 157 20 gusting 27 22.2
2020-Aug-04 20:30 157 19 gusting 26 22.2
2020-Aug-04 20:25 157 19 gusting 25 22.2
2020-Aug-04 20:20 157 19 gusting 25 22.2
2020-Aug-04 20:15 157 19 gusting 23 22.2
2020-Aug-04 20:10 157 19 gusting 25 22.2
2020-Aug-04 20:05 157 19 gusting 24 22.2
2020-Aug-04 20:00 157 18 gusting 23 22.2
2020-Aug-04 19:55 157 17 gusting 22 22.2
2020-Aug-04 19:50 157 16 gusting 20 22.2
2020-Aug-04 19:45 157 16 gusting 20 22.2
2020-Aug-04 19:40 157 17 gusting 20 22.2
2020-Aug-04 19:35 157 18 gusting 21 22.2
2020-Aug-04 19:30 157 19 gusting 25 22.2
2020-Aug-04 19:25 157 19 gusting 22 22.2
2020-Aug-04 19:20 157 19 gusting 23 22.2
2020-Aug-04 19:15 157 18 gusting 21 22.2
2020-Aug-04 19:10 157 17 gusting 20 22.2
2020-Aug-04 19:05 157 16 gusting 19 22.2
2020-Aug-04 19:00 157 16 gusting 19 22.2
2020-Aug-04 18:55 157 16 gusting 19 21.7
2020-Aug-04 18:50 157 16 gusting 19 21.7
2020-Aug-04 18:45 157 15 gusting 18 21.7
2020-Aug-04 18:40 157 14 gusting 18 21.7
2020-Aug-04 18:35 157 14 gusting 17 21.7
2020-Aug-04 18:30 157 13 gusting 18 21.7
2020-Aug-04 18:25 157 10 gusting 14 21.7
2020-Aug-04 18:20 157 9 gusting 11 21.7
2020-Aug-04 18:15 157 9 gusting 12 21.7
2020-Aug-04 18:10 157 10 gusting 13 21.7
2020-Aug-04 18:05 157 11 gusting 14 21.7
2020-Aug-04 18:00 157 12 gusting 14 21.7
2020-Aug-04 17:50 157 10 gusting 13 21.7
2020-Aug-04 17:45 157 12 gusting 15 21.7
2020-Aug-04 17:40 157 13 gusting 17 21.7
2020-Aug-04 17:35 157 13 gusting 16 21.7
2020-Aug-04 17:30 157 13 gusting 14 21.7
2020-Aug-04 17:25 157 11 gusting 13 21.7
2020-Aug-04 17:20 157 9 gusting 11 21.7
2020-Aug-04 17:15 157 9 gusting 12 21.7
2020-Aug-04 17:10 157 7 gusting 9 21.7
2020-Aug-04 17:05 135 8 gusting 11 21.7
2020-Aug-04 17:00 135 8 gusting 10 22.2
2020-Aug-04 16:55 157 7 gusting 10 22.2
2020-Aug-04 16:50 157 10 gusting 13 22.2
2020-Aug-04 16:45 157 12 gusting 13 21.7
2020-Aug-04 16:40 157 10 gusting 13 21.7
2020-Aug-04 16:35 157 8 gusting 10 21.7
2020-Aug-04 16:30 157 7 gusting 11 21.7
2020-Aug-04 16:25 157 7 gusting 10 21.7
2020-Aug-04 16:20 135 7 gusting 10 21.7
2020-Aug-04 16:15 135 7 gusting 10 22.2
2020-Aug-04 16:10 157 7 gusting 11 21.7
2020-Aug-04 16:05 157 9 gusting 11 21.7
2020-Aug-04 16:00 157 10 gusting 12 21.7
2020-Aug-04 15:55 157 9 gusting 12 21.7
2020-Aug-04 15:50 157 9 gusting 13 21.7
2020-Aug-04 15:45 157 9 gusting 12 22.2
2020-Aug-04 15:40 157 9 gusting 12 22.2
2020-Aug-04 15:35 157 8 gusting 11 22.2
2020-Aug-04 15:30 157 6 gusting 9 22.2
2020-Aug-04 15:25 157 7 gusting 9 22.2
2020-Aug-04 15:20 157 6 gusting 9 21.7
2020-Aug-04 15:15 157 7 gusting 9 21.7
2020-Aug-04 15:10 157 7 gusting 9 21.7
2020-Aug-04 15:05 157 7 gusting 9 21.7
2020-Aug-04 15:00 157 7 gusting 10 21.7
2020-Aug-04 14:55 157 7 gusting 9 21.7
2020-Aug-04 14:50 157 6 gusting 8 22.2
2020-Aug-04 14:45 157 6 gusting 8 22.2
2020-Aug-04 14:40 157 6 gusting 7 22.2
2020-Aug-04 14:35 157 6 gusting 8 22.2
2020-Aug-04 14:30 157 5 gusting 7 21.7
2020-Aug-04 14:25 135 5 gusting 7 22.2
2020-Aug-04 14:20 135 5 gusting 6 22.2
2020-Aug-04 14:15 135 5 gusting 6 22.2
2020-Aug-04 14:10 135 5 gusting 7 22.2
2020-Aug-04 14:05 135 5 gusting 6 22.2
2020-Aug-04 14:00 135 6 gusting 7 22.2
2020-Aug-04 13:55 157 4 gusting 6 21.7
2020-Aug-04 13:50 157 4 gusting 5 21.7
2020-Aug-04 13:45 135 4 gusting 6 21.7
2020-Aug-04 13:40 135 5 gusting 6 22.2
2020-Aug-04 13:35 135 5 gusting 6 22.2
2020-Aug-04 13:30 135 4 gusting 6 22.2
2020-Aug-04 13:25 157 3 gusting 6 22.2
2020-Aug-04 13:20 157 5 gusting 6 22.2
2020-Aug-04 13:15 157 5 gusting 6 21.7
2020-Aug-04 13:10 180 4 gusting 5 21.7
2020-Aug-04 13:05 180 3 gusting 4 22.2
2020-Aug-04 13:00 180 3 gusting 5 21.7
2020-Aug-04 12:55 180 3 gusting 4 22.2
2020-Aug-04 12:50 180 3 gusting 4 22.2
2020-Aug-04 12:45 180 3 gusting 5 22.2
2020-Aug-04 12:40 180 4 gusting 5 22.2
2020-Aug-04 12:35 180 3 gusting 4 22.2
2020-Aug-04 12:30 180 2 gusting 4 22.2
2020-Aug-04 12:25 180 1 gusting 3 22.2
2020-Aug-04 12:20 180 2 gusting 2 22.2
2020-Aug-04 12:15 180 2 gusting 3 22.2
2020-Aug-04 12:10 180 3 gusting 4 22.2
2020-Aug-04 12:05 180 3 gusting 4 22.2
2020-Aug-04 12:00 180 3 gusting 4 22.2
2020-Aug-04 11:55 180 2 gusting 3 22.2
2020-Aug-04 11:50 180 2 gusting 3 22.2
2020-Aug-04 11:45 180 2 gusting 4 22.2
2020-Aug-04 11:40 180 3 gusting 5 22.2
2020-Aug-04 11:35 157 1 gusting 3 22.2
2020-Aug-04 11:30 157 3 gusting 5 22.2
2020-Aug-04 11:25 180 5 gusting 7 21.7
2020-Aug-04 11:20 157 6 gusting 8 21.7
2020-Aug-04 11:15 157 7 gusting 9 21.7
2020-Aug-04 11:10 157 6 gusting 8 21.7
2020-Aug-04 11:05 135 6 gusting 8 21.7
2020-Aug-04 11:00 135 5 gusting 6 21.7
2020-Aug-04 10:50 135 5 gusting 6 22.2
2020-Aug-04 10:45 135 4 gusting 6 21.7
2020-Aug-04 10:40 135 4 gusting 6 21.7
2020-Aug-04 10:35 135 6 gusting 7 21.7
2020-Aug-04 10:30 135 4 gusting 6 22.2
2020-Aug-04 10:25 112 4 gusting 6 22.2
2020-Aug-04 10:20 135 3 gusting 5 22.2
2020-Aug-04 10:15 135 3 gusting 4 22.8
2020-Aug-04 10:10 157 2 gusting 5 22.2
2020-Aug-04 10:05 135 1 gusting 2 22.2
2020-Aug-04 10:00 135 1 gusting 3 22.8
2020-Aug-04 09:50 157 2 gusting 3 22.8
2020-Aug-04 09:45 157 1 gusting 3 22.8
2020-Aug-04 09:35 157 2 gusting 3 22.8
2020-Aug-04 09:30 157 2 gusting 4 22.8
2020-Aug-04 09:25 090 2 gusting 2 22.2
2020-Aug-04 09:20 247 1 gusting 2 22.2
2020-Aug-04 09:15 247 2 gusting 2 22.2
2020-Aug-04 09:10 225 3 gusting 5 22.2
2020-Aug-04 09:05 247 4 gusting 5 22.2
2020-Aug-04 09:00 247 4 gusting 5 22.2
2020-Aug-04 08:55 247 4 gusting 5 22.2
2020-Aug-04 08:50 225 3 gusting 4 22.2
2020-Aug-04 08:45 225 2 gusting 3 22.2
2020-Aug-04 08:40 225 2 gusting 3 22.2
2020-Aug-04 08:35 225 2 gusting 3 22.2
2020-Aug-04 08:30 225 3 gusting 4 22.2
2020-Aug-04 08:25 225 3 gusting 4 22.2
2020-Aug-04 08:20 225 2 gusting 3 22.8
2020-Aug-04 08:15 225 2 gusting 3 22.8
2020-Aug-04 08:10 225 2 gusting 3 22.8
2020-Aug-04 08:05 225 2 gusting 3 22.8
2020-Aug-04 08:00 225 2 gusting 3 22.8
2020-Aug-04 07:55 225 2 gusting 3 22.8
2020-Aug-04 07:50 225 2 gusting 2 22.8
2020-Aug-04 07:45 23.3
2020-Aug-04 07:40 23.3
2020-Aug-04 07:35 23.3
2020-Aug-04 07:30 23.3
2020-Aug-04 07:25 23.9
2020-Aug-04 07:20 23.9
2020-Aug-04 07:15 23.9
2020-Aug-04 07:10 23.9
2020-Aug-04 07:05 247 2 gusting 3 24.4
2020-Aug-04 07:00 247 1 gusting 2 24.4
2020-Aug-04 06:55 247 1 gusting 1 23.9
2020-Aug-04 06:50 247 1 gusting 2 24.4
2020-Aug-04 06:45 24.4
2020-Aug-04 06:40 247 1 gusting 3 24.4
2020-Aug-04 06:35 247 4 gusting 6 24.4
2020-Aug-04 06:30 247 6 gusting 6 24.4
2020-Aug-04 06:25 247 4 gusting 6 24.4
2020-Aug-04 06:20 247 3 gusting 4 24.4
2020-Aug-04 06:15 247 4 gusting 6 24.4
2020-Aug-04 06:10 247 5 gusting 6 24.4
2020-Aug-04 06:05 247 4 gusting 6 24.4
2020-Aug-04 06:00 247 5 gusting 6 24.4
2020-Aug-04 05:55 270 4 gusting 6 24.4
2020-Aug-04 05:50 270 6 gusting 6 24.4
2020-Aug-04 05:45 270 6 gusting 6 24.4
2020-Aug-04 05:40 270 6 gusting 6 24.4
2020-Aug-04 05:35 270 5 gusting 6 24.4
2020-Aug-04 05:30 270 5 gusting 6 23.9
2020-Aug-04 05:25 270 2 gusting 2 23.9
2020-Aug-04 05:20 270 3 gusting 6 23.3
2020-Aug-04 05:15 270 6 gusting 6 22.8
2020-Aug-04 05:10 270 6 gusting 7 22.2
2020-Aug-04 05:05 270 6 gusting 8 22.2
2020-Aug-04 05:00 247 7 gusting 9 21.7
2020-Aug-04 04:55 270 6 gusting 8 21.7
2020-Aug-04 04:50 270 6 gusting 8 21.7
2020-Aug-04 04:45 247 7 gusting 9 21.7
2020-Aug-04 04:40 247 7 gusting 9 21.7
2020-Aug-04 04:35 247 6 gusting 10 21.7
2020-Aug-04 04:30 247 8 gusting 11 22.2
2020-Aug-04 04:25 247 7 gusting 10 22.2
2020-Aug-04 04:20 225 6 gusting 8 22.2
2020-Aug-04 04:15 225 6 gusting 7 22.2
2020-Aug-04 04:10 225 6 gusting 9 22.2
2020-Aug-04 04:05 247 6 gusting 7 22.8
2020-Aug-04 04:00 247 6 gusting 6 22.8
2020-Aug-04 03:55 247 5 gusting 6 23.3
2020-Aug-04 03:50 247 4 gusting 5 23.9
2020-Aug-04 03:45 247 2 gusting 5 23.9
2020-Aug-04 03:40 247 1 gusting 2 23.3
2020-Aug-04 03:35 225 1 gusting 3 23.3
2020-Aug-04 03:30 225 2 gusting 3 23.3
2020-Aug-04 03:25 202 2 gusting 2 23.3
2020-Aug-04 03:20 202 1 gusting 2 23.3
2020-Aug-04 03:15 202 2 gusting 3 23.3
2020-Aug-04 03:10 202 1 gusting 2 23.3
2020-Aug-04 03:05 202 1 gusting 3 23.9
2020-Aug-04 03:00 202 2 gusting 3 23.9
2020-Aug-04 02:55 292 1 gusting 4 23.9
2020-Aug-04 02:50 315 2 gusting 4 24.4
2020-Aug-04 02:40 315 4 gusting 6 25.0
2020-Aug-04 02:35 315 4 gusting 6 25.0
2020-Aug-04 02:30 315 5 gusting 7 25.0
2020-Aug-04 02:25 315 6 gusting 7 25.6
2020-Aug-04 02:20 315 6 gusting 7 25.6
2020-Aug-04 02:10 315 6 gusting 8 25.6
2020-Aug-04 02:05 315 6 gusting 8 25.6
2020-Aug-04 02:00 315 6 gusting 8 25.6
2020-Aug-04 01:55 315 6 gusting 8 25.6
2020-Aug-04 01:50 315 6 gusting 8 25.6
2020-Aug-04 01:45 315 5 gusting 8 25.6
2020-Aug-04 01:40 315 6 gusting 8 25.6
2020-Aug-04 01:35 315 6 gusting 8 25.6
2020-Aug-04 01:30 315 6 gusting 10 25.6
2020-Aug-04 01:25 315 6 gusting 10 25.6
2020-Aug-04 01:20 315 6 gusting 10 26.1
2020-Aug-04 01:15 315 6 gusting 11 26.1
2020-Aug-04 01:10 292 6 gusting 9 26.1
2020-Aug-04 01:05 315 6 gusting 10 26.1
2020-Aug-04 01:00 315 7 gusting 9 26.1
2020-Aug-04 00:55 315 6 gusting 10 26.1
2020-Aug-04 00:50 315 6 gusting 10 26.1
2020-Aug-04 00:45 315 6 gusting 8 26.1
2020-Aug-04 00:40 315 6 gusting 9 26.1
2020-Aug-04 00:35 315 6 gusting 10 26.1
2020-Aug-04 00:30 315 6 gusting 9 26.1
2020-Aug-04 00:25 315 6 gusting 9 26.7
2020-Aug-04 00:20 315 6 gusting 8 26.7
2020-Aug-04 00:15 315 6 gusting 8 26.7
2020-Aug-04 00:10 315 6 gusting 10 26.7
2020-Aug-04 00:05 315 6 gusting 10 26.7
2020-Aug-04 00:00 315 8 gusting 12 26.7
2020-Aug-03 23:55 315 7 gusting 9 26.7
2020-Aug-03 23:50 315 7 gusting 10 26.7
2020-Aug-03 23:45 315 7 gusting 10 27.2
2020-Aug-03 23:40 315 7 gusting 10 27.2
2020-Aug-03 23:35 315 6 gusting 11 27.2
2020-Aug-03 23:30 315 7 gusting 11 27.2
2020-Aug-03 23:25 315 7 gusting 11 27.2
2020-Aug-03 23:20 315 6 gusting 8 27.2
2020-Aug-03 23:15 337 7 gusting 10 27.2
2020-Aug-03 23:10 337 7 gusting 10 27.2
2020-Aug-03 23:05 337 7 gusting 10 28.3
2020-Aug-03 23:00 292 6 gusting 9 29.4
2020-Aug-03 22:55 292 6 gusting 10 29.4
2020-Aug-03 22:50 292 7 gusting 12 29.4
2020-Aug-03 22:45 292 6 gusting 11 28.9
2020-Aug-03 22:40 292 6 gusting 10 28.9
2020-Aug-03 22:35 270 7 gusting 10 28.9
2020-Aug-03 22:30 270 8 gusting 12 29.4
2020-Aug-03 22:25 270 8 gusting 12 29.4
2020-Aug-03 22:20 270 9 gusting 13 29.4
2020-Aug-03 22:15 270 8 gusting 13 30.0
2020-Aug-03 22:10 292 9 gusting 15 30.0
2020-Aug-03 22:05 270 8 gusting 12 29.4
2020-Aug-03 22:00 270 9 gusting 13 30.0
2020-Aug-03 21:55 270 12 gusting 17 30.0
2020-Aug-03 21:50 270 12 gusting 17 29.4
2020-Aug-03 21:45 270 10 gusting 13 30.0
2020-Aug-03 21:40 292 9 gusting 15 30.0
2020-Aug-03 21:35 270 10 gusting 17 30.0
2020-Aug-03 21:25 270 10 gusting 15 30.6
2020-Aug-03 21:20 292 10 gusting 14 30.6
2020-Aug-03 21:15 270 12 gusting 15 30.6
2020-Aug-03 21:10 270 12 gusting 17 30.0
2020-Aug-03 21:05 270 13 gusting 19 30.0
2020-Aug-03 21:00 270 12 gusting 17 30.0
2020-Aug-03 20:55 270 13 gusting 17 30.0
2020-Aug-03 20:50 270 10 gusting 16 30.6
2020-Aug-03 20:45 270 13 gusting 19 30.6
2020-Aug-03 20:40 270 13 gusting 20 30.6
2020-Aug-03 20:35 292 13 gusting 18 30.6
2020-Aug-03 20:30 270 12 gusting 18 30.6
2020-Aug-03 20:25 270 13 gusting 19 30.6
2020-Aug-03 20:20 270 11 gusting 14 30.6
2020-Aug-03 20:15 270 14 gusting 22 30.6
2020-Aug-03 20:10 292 13 gusting 25 31.1
2020-Aug-03 20:05 270 13 gusting 18 31.1
2020-Aug-03 20:00 292 15 gusting 21 31.1
2020-Aug-03 19:55 292 13 gusting 19 31.1
2020-Aug-03 19:50 270 12 gusting 20 31.1
2020-Aug-03 19:45 270 13 gusting 19 31.1
2020-Aug-03 19:40 270 10 gusting 16 31.1
2020-Aug-03 19:35 292 12 gusting 19 31.1
2020-Aug-03 19:30 270 13 gusting 20 31.1
2020-Aug-03 19:25 292 13 gusting 19 31.1
2020-Aug-03 19:20 292 13 gusting 20 31.1
2020-Aug-03 19:15 292 12 gusting 17 31.1
2020-Aug-03 19:10 292 13 gusting 16 31.1
2020-Aug-03 19:05 292 12 gusting 21 31.1
2020-Aug-03 19:00 292 13 gusting 17 31.1
2020-Aug-03 18:55 292 13 gusting 18 31.1
2020-Aug-03 18:50 292 14 gusting 19 31.1
2020-Aug-03 18:45 292 9 gusting 14 31.7
2020-Aug-03 18:40 270 11 gusting 15 31.1
2020-Aug-03 18:35 270 10 gusting 19 31.7
2020-Aug-03 18:30 270 10 gusting 16 31.7
2020-Aug-03 18:25 292 10 gusting 16 31.7
2020-Aug-03 18:20 292 11 gusting 17 31.7
2020-Aug-03 18:15 270 12 gusting 16 31.1
2020-Aug-03 18:10 270 8 gusting 13 31.1
2020-Aug-03 18:05 270 7 gusting 13 31.7
2020-Aug-03 18:00 270 8 gusting 14 31.1